Time;durP1;ratioP1;P1;durP2;ratioP2;P2;SDS_P1;SDS_P2;PMS_P1;PMS_P2;Temp;Humidity;BMP_temperature;BMP_pressure;BME280_temperature;BME280_humidity;BME280_pressure;Samples;Min_cycle;Max_cycle;Signal;HPM_P1;HPM_P2
2022/01/22 16:52:29;;;;;;;14.40;5.90;;;;;;;;;;5041529;28;20035;-67
2022/01/22 16:55:03;;;;;;;12.15;4.78;;;;;;;;;;5035354;28;20042;-67
2022/01/22 16:57:33;;;;;;;9.02;4.30;;;;;;;;;;5049045;28;20045;-66
2022/01/22 17:00:05;;;;;;;9.07;4.28;;;;;;;;;;5043339;28;20032;-67
2022/01/22 17:02:34;;;;;;;8.68;4.20;;;;;;;;;;5050185;28;20037;-66
2022/01/22 17:05:10;;;;;;;9.50;4.73;;;;;;;;;;5056388;28;20037;-67
2022/01/22 17:07:57;;;;;;;7.68;5.00;;;;;;;;;;5061753;28;20299;-66
2022/01/22 17:15:42;;;;;;;8.55;5.28;;;;;;;;;;5045338;28;20086;-67
2022/01/22 17:18:08;;;;;;;8.82;4.88;;;;;;;;;;5045709;28;20505;-72
2022/01/22 17:20:34;;;;;;;10.48;5.22;;;;;;;;;;5042763;28;20056;-72
2022/01/22 17:23:01;;;;;;;7.53;4.90;;;;;;;;;;5040247;28;20031;-70
2022/01/22 17:25:27;;;;;;;10.55;4.72;;;;;;;;;;5039153;28;20402;-72
2022/01/22 17:27:53;;;;;;;7.93;4.90;;;;;;;;;;5038651;28;20171;-70
2022/01/22 17:30:19;;;;;;;10.63;4.88;;;;;;;;;;5038245;28;20029;-71
2022/01/22 17:32:45;;;;;;;7.95;4.20;;;;;;;;;;5038253;28;20026;-72
2022/01/22 17:35:11;;;;;;;12.23;5.07;;;;;;;;;;5040393;28;20385;-71
2022/01/22 17:37:37;;;;;;;10.88;4.53;;;;;;;;;;5037709;28;20028;-70
2022/01/22 17:40:04;;;;;;;7.25;3.83;;;;;;;;;;5038294;28;20103;-72
2022/01/22 17:42:32;;;;;;;9.38;4.28;;;;;;;;;;5037504;28;20037;-74
2022/01/22 17:45:06;;;;;;;7.18;3.95;;;;;;;;;;5043754;28;20159;-67
2022/01/22 17:47:33;;;;;;;12.77;4.68;;;;;;;;;;5058655;28;20021;-67
2022/01/22 17:49:59;;;;;;;9.18;4.65;;;;;;;;;;5038076;28;20043;-67
2022/01/22 17:52:25;;;;;;;7.97;3.97;;;;;;;;;;5056352;28;20040;-68
2022/01/22 17:54:51;;;;;;;8.40;4.40;;;;;;;;;;5055408;28;20029;-67
2022/01/22 17:57:17;;;;;;;7.82;4.18;;;;;;;;;;5048418;28;20432;-69
2022/01/22 17:59:47;;;;;;;12.23;5.00;;;;;;;;;;5047933;28;20114;-74
2022/01/22 18:02:14;;;;;;;7.10;3.92;;;;;;;;;;5050312;28;20044;-75
2022/01/22 18:04:42;;;;;;;8.32;4.00;;;;;;;;;;5052320;28;20372;-76
2022/01/22 18:07:08;;;;;;;8.82;4.40;;;;;;;;;;5053139;28;20091;-75
2022/01/22 18:09:34;;;;;;;12.50;4.95;;;;;;;;;;5035584;28;20040;-78
2022/01/22 18:12:00;;;;;;;11.60;4.40;;;;;;;;;;5034221;28;20044;-77
2022/01/22 18:14:26;;;;;;;8.68;4.53;;;;;;;;;;5048738;28;20029;-77
2022/01/22 18:16:52;;;;;;;7.72;4.07;;;;;;;;;;5034206;28;20025;-77
2022/01/22 18:19:19;;;;;;;7.40;4.28;;;;;;;;;;5033984;28;20025;-75
2022/01/22 18:21:47;;;;;;;8.85;4.63;;;;;;;;;;5053354;28;22211;-74
2022/01/22 18:24:13;;;;;;;10.10;4.90;;;;;;;;;;5047856;28;20025;-74
2022/01/22 18:26:40;;;;;;;7.57;4.55;;;;;;;;;;5050800;28;20028;-75
2022/01/22 18:29:08;;;;;;;9.52;4.70;;;;;;;;;;5045837;28;20479;-69
2022/01/22 18:31:34;;;;;;;7.60;4.47;;;;;;;;;;5044977;28;20487;-69
2022/01/22 18:34:04;;;;;;;13.02;4.95;;;;;;;;;;5046734;28;20086;-72
2022/01/22 18:36:33;;;;;;;9.55;4.32;;;;;;;;;;5049325;28;20017;-75
2022/01/22 18:39:01;;;;;;;8.03;4.60;;;;;;;;;;5048254;28;20025;-71
2022/01/22 18:41:27;;;;;;;9.07;4.30;;;;;;;;;;5041817;28;20101;-68
2022/01/22 18:43:53;;;;;;;11.43;5.07;;;;;;;;;;5042366;28;20425;-73
2022/01/22 18:46:20;;;;;;;8.32;4.47;;;;;;;;;;5045236;28;20114;-75
2022/01/22 18:48:46;;;;;;;7.65;4.50;;;;;;;;;;5041374;28;20079;-75
2022/01/22 18:51:13;;;;;;;11.75;4.80;;;;;;;;;;5044007;28;20175;-71
2022/01/22 18:53:39;;;;;;;11.05;5.00;;;;;;;;;;5051490;28;20115;-68
2022/01/22 18:56:06;;;;;;;8.88;5.38;;;;;;;;;;5050202;28;20056;-69
2022/01/22 18:58:35;;;;;;;8.43;5.45;;;;;;;;;;5050160;28;20021;-73
2022/01/22 19:01:03;;;;;;;9.25;5.28;;;;;;;;;;5032900;28;20033;-73
2022/01/22 19:03:29;;;;;;;9.43;5.28;;;;;;;;;;5050433;28;20025;-73
2022/01/22 19:05:55;;;;;;;14.43;5.75;;;;;;;;;;5051506;28;20040;-70
2022/01/22 19:08:24;;;;;;;9.80;5.38;;;;;;;;;;5048861;28;20025;-71
2022/01/22 19:10:52;;;;;;;10.15;5.30;;;;;;;;;;5051270;28;20029;-72
2022/01/22 19:13:18;;;;;;;8.57;5.30;;;;;;;;;;5050440;28;20016;-72
2022/01/22 19:15:44;;;;;;;9.98;5.70;;;;;;;;;;5033669;28;20032;-72
2022/01/22 19:18:10;;;;;;;10.77;5.68;;;;;;;;;;5052021;28;20025;-74
2022/01/22 19:20:37;;;;;;;12.18;7.07;;;;;;;;;;5032542;28;20164;-71
2022/01/22 19:28:31;;;;;;;11.90;6.22;;;;;;;;;;5048813;28;20403;-72
2022/01/22 19:30:59;;;;;;;9.77;6.30;;;;;;;;;;5049687;28;20032;-74
2022/01/22 19:33:25;;;;;;;10.45;6.20;;;;;;;;;;5048978;28;20029;-67
2022/01/22 19:35:52;;;;;;;9.10;5.53;;;;;;;;;;5049669;28;20471;-68
2022/01/22 19:38:19;;;;;;;12.20;6.45;;;;;;;;;;5049658;28;20017;-69
2022/01/22 19:40:47;;;;;;;9.45;5.85;;;;;;;;;;5049469;28;20494;-68
2022/01/22 19:43:13;;;;;;;12.65;5.38;;;;;;;;;;5049860;28;20505;-70
2022/01/22 19:45:41;;;;;;;10.75;6.50;;;;;;;;;;5031460;28;20072;-70
2022/01/22 19:48:07;;;;;;;10.43;6.50;;;;;;;;;;5049299;28;20025;-69
2022/01/22 19:50:33;;;;;;;10.68;6.20;;;;;;;;;;5049271;28;20059;-67
2022/01/22 19:53:02;;;;;;;11.65;7.13;;;;;;;;;;5049464;28;20028;-68
2022/01/22 19:55:28;;;;;;;12.35;7.45;;;;;;;;;;5049237;28;20032;-68
2022/01/22 19:57:54;;;;;;;9.88;6.88;;;;;;;;;;5049487;28;20087;-68
2022/01/22 20:00:20;;;;;;;9.85;6.25;;;;;;;;;;5049065;28;20025;-68
2022/01/22 20:02:47;;;;;;;8.90;6.03;;;;;;;;;;5044030;28;20013;-69
2022/01/22 20:05:15;;;;;;;11.07;7.03;;;;;;;;;;5047331;28;20021;-72
2022/01/22 20:07:41;;;;;;;14.95;7.90;;;;;;;;;;5036591;28;20136;-74
2022/01/22 20:10:12;;;;;;;10.10;6.32;;;;;;;;;;5036447;28;20496;-73
2022/01/22 20:12:39;;;;;;;11.15;7.25;;;;;;;;;;5056214;28;20031;-70
2022/01/22 20:15:05;;;;;;;13.23;7.20;;;;;;;;;;5065145;28;20033;-72
2022/01/22 20:17:31;;;;;;;11.25;6.22;;;;;;;;;;5050577;28;20538;-74
2022/01/22 20:19:58;;;;;;;12.32;7.30;;;;;;;;;;5050544;28;20032;-72
2022/01/22 20:22:24;;;;;;;9.85;6.38;;;;;;;;;;5050362;28;20057;-72
2022/01/22 20:24:50;;;;;;;10.48;6.75;;;;;;;;;;5050580;28;20382;-73
2022/01/22 20:27:17;;;;;;;11.65;7.45;;;;;;;;;;5052484;28;20423;-73
2022/01/22 20:29:43;;;;;;;9.52;6.20;;;;;;;;;;5063323;28;20036;-73
2022/01/22 20:32:09;;;;;;;10.98;7.43;;;;;;;;;;5033886;28;20056;-72
2022/01/22 20:34:35;;;;;;;10.35;6.20;;;;;;;;;;5049160;28;20051;-74
2022/01/22 20:37:01;;;;;;;10.45;6.30;;;;;;;;;;5048857;28;20078;-74
2022/01/22 20:39:27;;;;;;;12.75;6.57;;;;;;;;;;5060171;28;20537;-74
2022/01/22 20:41:53;;;;;;;8.70;6.00;;;;;;;;;;5048423;28;20047;-74
2022/01/22 20:44:21;;;;;;;9.73;6.28;;;;;;;;;;5048511;28;20467;-73
2022/01/22 20:46:56;;;;;;;13.60;5.95;;;;;;;;;;5048932;28;20067;-73
2022/01/22 20:49:24;;;;;;;8.50;5.72;;;;;;;;;;5030607;28;20107;-73
2022/01/22 20:51:50;;;;;;;10.45;5.55;;;;;;;;;;5048882;28;20013;-74
2022/01/22 20:54:16;;;;;;;8.30;5.03;;;;;;;;;;5049502;28;20044;-75
2022/01/22 20:56:42;;;;;;;9.20;5.45;;;;;;;;;;5048477;28;20024;-72
2022/01/22 20:59:09;;;;;;;9.30;5.63;;;;;;;;;;5030580;28;20025;-75
2022/01/22 21:01:38;;;;;;;9.63;6.40;;;;;;;;;;5048396;28;20119;-74
2022/01/22 21:04:05;;;;;;;7.97;5.20;;;;;;;;;;5048109;28;20186;-73
2022/01/22 21:06:31;;;;;;;7.80;5.32;;;;;;;;;;5048800;28;20029;-75
2022/01/22 21:08:57;;;;;;;8.68;5.05;;;;;;;;;;5049382;28;20017;-72
2022/01/22 21:11:24;;;;;;;10.65;5.40;;;;;;;;;;5049207;28;20029;-74
2022/01/22 21:13:51;;;;;;;7.72;4.55;;;;;;;;;;5048183;28;20102;-72
2022/01/22 21:16:18;;;;;;;7.15;4.60;;;;;;;;;;5031397;28;20036;-73
2022/01/22 21:18:44;;;;;;;7.40;4.88;;;;;;;;;;5048470;28;20830;-74
2022/01/22 21:21:11;;;;;;;8.90;5.30;;;;;;;;;;5048675;28;20113;-74
2022/01/22 21:23:37;;;;;;;7.88;5.10;;;;;;;;;;5048162;28;20113;-73
2022/01/22 21:26:03;;;;;;;8.73;5.30;;;;;;;;;;5048209;28;20133;-74
2022/01/22 21:28:29;;;;;;;10.50;5.35;;;;;;;;;;5029834;28;20025;-73
2022/01/22 21:30:55;;;;;;;8.77;5.10;;;;;;;;;;5048381;28;20103;-73
2022/01/22 21:33:36;;;;;;;11.35;4.80;;;;;;;;;;5034171;28;20116;-73
2022/01/22 21:36:05;;;;;;;11.93;5.32;;;;;;;;;;5033926;28;20033;-74
2022/01/22 21:38:39;;;;;;;8.00;4.82;;;;;;;;;;5034134;28;20025;-73
2022/01/22 21:41:07;;;;;;;7.13;4.40;;;;;;;;;;5051943;28;20495;-74
2022/01/22 21:43:33;;;;;;;7.25;4.43;;;;;;;;;;5051778;28;20025;-73
2022/01/22 21:46:00;;;;;;;7.38;4.80;;;;;;;;;;5051463;28;20045;-73
2022/01/22 21:48:26;;;;;;;7.00;4.40;;;;;;;;;;5033403;28;20021;-73
2022/01/22 21:50:54;;;;;;;7.00;4.53;;;;;;;;;;5052232;28;20021;-72
2022/01/22 21:53:21;;;;;;;8.57;4.70;;;;;;;;;;5022114;28;20028;-73
2022/01/22 21:55:47;;;;;;;8.15;4.82;;;;;;;;;;5033671;28;20033;-71
2022/01/22 21:58:14;;;;;;;8.00;4.10;;;;;;;;;;5051266;28;20036;-71
2022/01/22 22:00:40;;;;;;;8.02;4.90;;;;;;;;;;5033647;28;20029;-71
2022/01/22 22:03:08;;;;;;;10.05;6.18;;;;;;;;;;5033349;28;20156;-71
2022/01/22 22:05:39;;;;;;;12.07;5.88;;;;;;;;;;5030165;28;20037;-71
2022/01/22 22:08:07;;;;;;;9.15;4.97;;;;;;;;;;5013452;28;20065;-70
2022/01/22 22:10:37;;;;;;;8.05;5.00;;;;;;;;;;5050185;28;20021;-71
2022/01/22 22:13:03;;;;;;;8.95;5.00;;;;;;;;;;5042262;28;20494;-71
2022/01/22 22:15:36;;;;;;;13.20;4.82;;;;;;;;;;5047300;28;20022;-71
2022/01/22 22:18:02;;;;;;;15.45;5.38;;;;;;;;;;5043118;28;20026;-71
2022/01/22 22:20:28;;;;;;;10.90;5.47;;;;;;;;;;5026787;28;20049;-72
2022/01/22 22:22:55;;;;;;;9.73;4.10;;;;;;;;;;5042315;28;20061;-72
2022/01/22 22:25:21;;;;;;;8.88;4.82;;;;;;;;;;5045480;28;20029;-72
2022/01/22 22:27:49;;;;;;;12.18;4.05;;;;;;;;;;5040916;28;20017;-72
2022/01/22 22:30:16;;;;;;;7.00;4.10;;;;;;;;;;5028787;28;20036;-72
2022/01/22 22:32:47;;;;;;;10.18;4.43;;;;;;;;;;5024080;28;20022;-71
2022/01/22 22:35:14;;;;;;;7.90;4.38;;;;;;;;;;5051408;28;20031;-71
2022/01/22 22:37:40;;;;;;;8.80;3.97;;;;;;;;;;5034032;28;20021;-72
2022/01/22 22:40:06;;;;;;;9.57;4.32;;;;;;;;;;5050919;28;20036;-71
2022/01/22 22:42:47;;;;;;;7.57;4.13;;;;;;;;;;5033729;28;20036;-71
2022/01/22 22:45:14;;;;;;;7.38;4.40;;;;;;;;;;5028873;28;20060;-72
2022/01/22 22:47:40;;;;;;;7.28;4.45;;;;;;;;;;5034122;28;20025;-73
2022/01/22 22:50:07;;;;;;;9.45;3.97;;;;;;;;;;5045299;28;20022;-70
2022/01/22 22:52:33;;;;;;;7.38;4.22;;;;;;;;;;5029181;28;20111;-73
2022/01/22 22:54:59;;;;;;;6.32;3.95;;;;;;;;;;5025577;28;20067;-72
2022/01/22 22:57:25;;;;;;;5.93;3.63;;;;;;;;;;5022981;28;20927;-71
2022/01/22 22:59:52;;;;;;;8.90;3.88;;;;;;;;;;5021959;28;20112;-73
2022/01/22 23:02:18;;;;;;;8.05;4.25;;;;;;;;;;5023130;28;20029;-73
2022/01/22 23:04:44;;;;;;;7.97;3.22;;;;;;;;;;5020494;28;20816;-74
2022/01/22 23:07:10;;;;;;;7.65;3.53;;;;;;;;;;5024013;28;20116;-72
2022/01/22 23:09:36;;;;;;;7.82;3.53;;;;;;;;;;5020541;28;20547;-72
2022/01/22 23:12:02;;;;;;;7.20;3.50;;;;;;;;;;5021870;28;20100;-73
2022/01/22 23:14:29;;;;;;;6.90;3.58;;;;;;;;;;5022281;28;20101;-74
2022/01/22 23:22:46;;;;;;;7.78;3.15;;;;;;;;;;5023620;28;20057;-71
2022/01/22 23:25:31;;;;;;;7.63;3.97;;;;;;;;;;5019865;28;20033;-72
2022/01/22 23:27:57;;;;;;;11.68;4.38;;;;;;;;;;5020241;28;20036;-72
2022/01/22 23:30:23;;;;;;;6.97;3.25;;;;;;;;;;5022855;28;20035;-72
2022/01/22 23:54:37;;;;;;;8.02;3.35;;;;;;;;;;5042473;28;20143;-71
2022/01/22 23:57:18;;;;;;;5.00;3.20;;;;;;;;;;5039797;28;20020;-70
